AirNav   Air Wisconsin pilot careers
 
 320 users online  

T37 Goldthwaite Municipal Airport
Goldthwaite, Texas, USA

GOING TO GOLDTHWAITE?


FAA INFORMATION EFFECTIVE 13 SEPTEMBER 2018

Location

FAA Identifier: T37
Lat/Long: 31-25-44.6400N / 098-36-30.0800W
31-25.744000N / 098-36.501333W
31.4290667 / -98.6083556
(estimated)
Elevation: 1457 ft. / 444 m (estimated)
From city: 2 miles SW of GOLDTHWAITE, TX
Time zone: UTC -5 (UTC -6 during Standard Time)
Zip code: 76844

Airport Operations

Airport use: Open to the public
Activation date: 08/2010
Control tower: no
ARTCC: FORT WORTH CENTER
FSS: FORT WORTH FLIGHT SERVICE STATION
NOTAMs facility: FTW (NOTAM-D service available)
Attendance: 0800-1700
Wind indicator: lighted
Segmented circle: yes

Airport Communications

CTAF: 122.9
WX AWOS-3 at 81R (13 nm SW): PHONE 325-372-6027

Nearby radio navigation aids

VOR radial/distance  VOR name  Freq  Var
AGJr296/28.0GOOCH SPRINGS VORTAC112.5005E
BWDr139/33.0BROWNWOOD VOR/DME108.6008E
LLOr006/39.1LLANO VORTAC108.2008E

 
NDB name  Hdg/Dist  Freq  Var  ID
BRADY061/39.638007EBBD -... -... -..

Airport Services

Parking: hangars

Runway Information

Runway 1/19

Dimensions: 3200 x 60 ft. / 975 x 18 m
Surface: asphalt, in good condition
Weight bearing capacity: 
Single wheel: 12.5
RUNWAY 1  RUNWAY 19
Latitude: 31-25.485000N31-26.002833N
Longitude: 098-36.560833W098-36.442000W
Elevation: 1445.0 ft.1457.0 ft.
Traffic pattern: leftleft
Markings: basic, in fair conditionbasic, in fair condition
Obstructions: 3 ft. fence, 200 ft. from runway, 91 ft. left of centerline
3 FT FENCE 0-200 FT FM THLD 91 FT L.
50 ft. tree, 1133 ft. from runway, 32 ft. left of centerline, 18:1 slope to clear

Airport Ownership and Management from official FAA records

Ownership: Publicly-owned
Owner: CITY OF GOLDTHWAITE
PO BOX 450
GOLDTHWAITE, TX 76844-0450
Phone 325-648-3186
Manager: ROBERT LINDSEY
PO BOX 450
GOLDTHWAITE, TX 76844-0450
Phone 325-648-3186
CITY MANAGER

Airport Operational Statistics

Aircraft based on the field: 9
Single engine airplanes: 9
    
Aircraft operations: avg 52/week *
67% local general aviation
33% transient general aviation
* for 12-month period ending 13 September 2017

Additional Remarks

RWY 01 HAS 4 FT FENCE AND ISOLATED + 18 FT TREES 400-475 FT FM THLD ACROSS APCH.
DEER ON & INVOF ARPT.

Instrument Procedures

There are no published instrument procedures at T37.

Some nearby airports with instrument procedures:

KMNZ - Hamilton Municipal Airport (27 nm NE)
KBWD - Brownwood Regional Airport (28 nm NW)
KLZZ - Lampasas Airport (29 nm SE)
KMKN - Comanche County-City Airport (29 nm N)
KAQO - Llano Municipal Airport (39 nm S)
 
Loc | Ops | Rwys | IFR | FBO | Links
Com | Nav | Svcs | Stats | Notes


 
Aerial photo
WARNING: Photo may not be current or correct
Aerial photo of T37 (Goldthwaite Municipal Airport)
Photo taken 20-Sep-2010

Do you have a better or more recent aerial photo of Goldthwaite Municipal Airport that you would like to share? If so, please send us your photo.

 
Sectional chart

 
Airport distance calculator
Flying to Goldthwaite Municipal Airport? Find the distance to fly.

From to T37

Sunrise and sunset
Times for 22-Sep-2018
 Local
(UTC-5)
 Zulu
(UTC)
Morning civil twilight06:5911:59
Sunrise07:2412:24
Sunset19:3100:31
Evening civil twilight19:5500:55

Current date and time
Zulu (UTC)  22-Sep-2018 08:08:37
Local (UTC-5)  22-Sep-2018 03:08:37
 
METAR
KBWD 
28nm NW 
220755Z AUTO 33013G20KT 7SM OVC010 19/18 A2998 RMK AO2 PWINO PNO
KLZZ 
29nm SE 
220735Z AUTO 19003KT 7SM -RA BKN005 OVC010 22/22 A2992 RMK AO2 LTG DSNT NE THRU S P0073 T02200217
KMKN 
29nm N 
220755Z AUTO 2SM -RA OVC004 19/19 A2997 RMK AO2 LTG DSNT NE AND SE T01940194
KAQO 
39nm S 
220755Z AUTO 24005KT 10SM VCTS OVC013 23/22 A2998 RMK AO2 LTG DSNT ALQDS
KBBD 
40nm W 
220755Z AUTO 34013KT 2 1/2SM -RA BKN006 BKN010 OVC014 19/18 A3001 RMK AO2 LTG DSNT E AND SE
KGOP 
42nm E 
220755Z AUTO VRB04KT 7SM -RA FEW002 SCT010 BKN018 23/23 A2993 RMK AO2 LTG DSNT S P0010
KGRK 
45nm SE 
220758Z 17009KT 5SM RA BR VCTS FEW006 BKN025 OVC044 22/21 A2991 RMK AO2A TSE08 CIG 025V048 BKN V SCT CIG 035 RWY33 SLP118 P0055 T02190211
KBMQ 
46nm SE 
220753Z AUTO 19003KT 10SM VCTS BKN008 BKN012 OVC021 23/23 A2996 RMK AO2 LTG DSNT E AND SE RAB0654E21 TSE0659 CIG 005V009 SLP125 P0000 T02330228
KCOM 
48nm NW 
220755Z AUTO 34016G24KT 10SM OVC009 17/16 A3001 RMK AO2 LTG DSNT SE T01710157
KHLR 
49nm E 
220758Z 19007KT 6SM -RA BR VCTS SCT006 OVC065 22/21 A2988 RMK AO2A SLP107 P0022 T02230213
TAF
KBBD 
40nm W 
220528Z 2206/2306 33010KT P6SM OVC006 FM221200 34015G22KT 5SM BR VCSH OVC007 FM221900 34014KT P6SM OVC008
KGRK 
45nm SE 
220550Z 2205/2222 15010G15KT 8000 -SHRA SCT006 OVC015 QNH2989INS TEMPO 2205/2208 18012G18KT 1600 -TSRA BKN006 OVC015CB BECMG 2207/2208 17006KT 6000 BR BKN010 OVC080 QNH2990INS BECMG 2211/2212 16006KT 9999 NSW BKN015 BKN100 QNH2992INS BECMG 2215/2216 19009KT 8000 -SHRA SCT040 BKN080 QNH2989INS TX31/2221Z TN22/2210Z
NOTAMs
Click for the latest NOTAMs
NOTAMs are issued by the DoD/FAA and will open in a separate window not controlled by AirNav.

 

 
 

Would you like to see your business listed on this page?

 If your business provides an interesting product or service to pilots, flight crews, aircraft, or users of the Goldthwaite Municipal Airport, you should consider listing it here.  To start the listing process, click on the button below
 
Add a business
 

Other Pages about Goldthwaite Municipal Airport

Update a link
 
Copyright © AirNav, LLC. All rights reserved. Privacy Policy  Contact